Time;durP1;ratioP1;P1;durP2;ratioP2;P2;SDS_P1;SDS_P2;PMS_P1;PMS_P2;Temp;Humidity;BMP_temperature;BMP_pressure;BME280_temperature;BME280_humidity;BME280_pressure;Samples;Min_cycle;Max_cycle;Signal;HPM_P1;HPM_P2
2022/04/26 03:37:06;;;;;;;2.88;2.20;;;12.50;62.40;;;;;;5092948;28;20039;-77
2022/04/26 03:39:32;;;;;;;2.85;1.88;;;12.50;62.40;;;;;;5092108;28;20039;-79
2022/04/26 03:41:59;;;;;;;3.10;2.22;;;12.40;62.40;;;;;;5092009;28;20040;-77
2022/04/26 03:44:25;;;;;;;3.85;2.10;;;12.50;62.50;;;;;;5100431;28;20097;-77
2022/04/26 03:46:50;;;;;;;2.45;1.95;;;12.40;62.40;;;;;;5091418;28;20024;-77
2022/04/26 03:49:16;;;;;;;2.28;1.95;;;12.40;62.40;;;;;;5095339;28;20028;-77
2022/04/26 03:51:42;;;;;;;2.42;1.90;;;12.40;62.40;;;;;;5073507;28;20031;-76
2022/04/26 03:54:08;;;;;;;2.08;1.80;;;12.40;62.40;;;;;;5099308;28;20036;-77
2022/04/26 03:56:34;;;;;;;2.53;2.00;;;12.40;62.40;;;;;;5075695;28;20131;-77
2022/04/26 03:58:59;;;;;;;2.88;2.03;;;12.40;62.40;;;;;;5083755;28;20029;-77
2022/04/26 04:01:25;;;;;;;2.22;1.80;;;12.40;62.50;;;;;;5070127;28;20037;-78
2022/04/26 04:03:51;;;;;;;2.30;1.98;;;12.40;62.40;;;;;;5071761;28;20025;-78
2022/04/26 04:06:18;;;;;;;2.70;1.80;;;12.40;62.50;;;;;;5088434;28;20111;-77
2022/04/26 04:08:43;;;;;;;2.55;1.90;;;12.40;62.50;;;;;;5090013;28;20123;-77
2022/04/26 04:11:09;;;;;;;2.80;2.05;;;12.40;62.50;;;;;;5085634;28;20051;-76
2022/04/26 04:13:35;;;;;;;2.78;1.90;;;12.40;62.60;;;;;;5072218;28;20682;-77
2022/04/26 04:16:01;;;;;;;2.75;1.80;;;12.30;62.50;;;;;;5097682;28;20054;-77
2022/04/26 04:21:10;;;;;;;3.45;2.20;;;12.30;62.50;;;;;;5085293;28;20031;-77
2022/04/26 04:23:38;;;;;;;2.50;2.00;;;12.30;62.50;;;;;;5099705;28;20044;-77
2022/04/26 04:26:04;;;;;;;3.05;1.80;;;12.30;62.60;;;;;;5092633;28;20024;-76
2022/04/26 04:28:32;;;;;;;3.00;2.03;;;12.30;62.60;;;;;;5095998;28;20081;-77
2022/04/26 04:30:58;;;;;;;2.67;1.90;;;12.30;62.70;;;;;;5071836;28;20036;-77
2022/04/26 04:33:24;;;;;;;3.72;2.17;;;12.30;62.70;;;;;;5070660;28;20043;-77
2022/04/26 04:35:50;;;;;;;2.92;2.10;;;12.30;62.70;;;;;;5079635;28;20159;-77
2022/04/26 04:38:15;;;;;;;2.70;1.67;;;12.30;62.70;;;;;;5077602;28;20032;-77
2022/04/26 04:40:42;;;;;;;2.72;1.92;;;12.30;62.70;;;;;;5077656;28;20398;-77
2022/04/26 04:43:11;;;;;;;2.85;2.20;;;12.30;62.70;;;;;;5090129;28;20050;-78
2022/04/26 04:45:39;;;;;;;2.53;2.00;;;12.30;62.80;;;;;;5079937;28;20024;-78
2022/04/26 04:48:05;;;;;;;2.17;1.90;;;12.30;62.80;;;;;;5100021;28;20126;-78
2022/04/26 04:50:34;;;;;;;3.05;2.20;;;12.20;62.80;;;;;;5089334;28;20035;-77
2022/04/26 04:53:00;;;;;;;2.92;1.95;;;12.20;62.80;;;;;;5095842;28;20020;-78
2022/04/26 04:55:26;;;;;;;4.28;2.20;;;12.20;62.80;;;;;;5075558;28;20039;-78
2022/04/26 04:57:52;;;;;;;3.75;2.28;;;12.20;62.80;;;;;;5072538;28;20043;-78
2022/04/26 05:00:18;;;;;;;2.55;2.20;;;12.20;62.80;;;;;;5091505;28;20024;-79
2022/04/26 05:02:44;;;;;;;4.40;2.15;;;12.20;62.90;;;;;;5047473;28;20035;-78
2022/04/26 05:05:10;;;;;;;2.35;1.92;;;12.20;62.80;;;;;;5097767;28;20053;-78
2022/04/26 05:07:36;;;;;;;2.60;2.15;;;12.20;62.90;;;;;;5078916;28;20131;-78
2022/04/26 05:10:06;;;;;;;3.45;2.10;;;12.20;62.90;;;;;;5093309;28;20032;-78
2022/04/26 05:12:33;;;;;;;3.35;2.33;;;12.20;63.00;;;;;;5078140;28;20024;-78
2022/04/26 05:15:00;;;;;;;2.95;2.33;;;12.20;63.00;;;;;;5072743;28;20528;-78
2022/04/26 05:17:29;;;;;;;3.00;2.00;;;12.20;63.00;;;;;;5097582;28;20542;-79
2022/04/26 05:19:56;;;;;;;2.92;2.38;;;12.20;63.00;;;;;;5087959;28;20035;-79
2022/04/26 05:22:22;;;;;;;3.30;2.00;;;12.20;63.00;;;;;;5068577;28;20448;-79
2022/04/26 05:24:56;;;;;;;4.57;2.53;;;12.20;63.10;;;;;;5094111;28;20075;-78
2022/04/26 05:27:34;;;;;;;3.08;2.17;;;12.20;63.10;;;;;;5078716;28;20084;-77
2022/04/26 05:30:00;;;;;;;3.42;2.72;;;12.20;63.20;;;;;;5089804;28;20372;-77
2022/04/26 05:32:28;;;;;;;2.85;2.30;;;12.10;63.10;;;;;;5060921;28;20036;-77
2022/04/26 05:35:01;;;;;;;3.28;2.33;;;12.20;63.20;;;;;;5079757;28;20086;-76
2022/04/26 05:37:29;;;;;;;3.88;2.42;;;12.10;63.20;;;;;;5088257;28;20054;-77
2022/04/26 05:39:55;;;;;;;2.80;2.25;;;12.10;63.20;;;;;;5079926;28;20055;-76
2022/04/26 05:42:21;;;;;;;3.53;2.30;;;12.20;63.30;;;;;;5077281;28;20047;-78
2022/04/26 05:44:47;;;;;;;3.45;2.70;;;12.10;63.30;;;;;;5055094;28;20040;-76
2022/04/26 05:47:13;;;;;;;3.78;2.75;;;12.20;63.30;;;;;;5091627;28;20024;-78
2022/04/26 05:49:39;;;;;;;2.95;2.40;;;12.20;63.40;;;;;;5075536;28;20048;-76
2022/04/26 05:52:05;;;;;;;4.20;2.80;;;12.20;63.40;;;;;;5097985;28;20082;-76
2022/04/26 05:54:32;;;;;;;4.32;2.60;;;12.20;63.40;;;;;;5098779;28;20480;-77
2022/04/26 05:56:58;;;;;;;3.80;3.00;;;12.20;63.50;;;;;;5100581;28;20030;-77
2022/04/26 05:59:24;;;;;;;3.38;2.45;;;12.20;63.40;;;;;;5092859;28;20107;-76
2022/04/26 06:01:51;;;;;;;4.07;2.85;;;12.20;63.50;;;;;;5083346;28;20078;-78
2022/04/26 06:04:17;;;;;;;4.28;2.60;;;12.20;63.50;;;;;;5088161;28;20032;-77
2022/04/26 06:06:43;;;;;;;4.00;2.78;;;12.20;63.50;;;;;;5088187;28;20179;-76
2022/04/26 06:09:13;;;;;;;5.35;3.35;;;12.20;63.60;;;;;;5087313;28;20067;-77
2022/04/26 06:11:38;;;;;;;4.28;3.10;;;12.20;63.60;;;;;;5082982;28;20051;-77
2022/04/26 06:14:05;;;;;;;4.10;2.75;;;12.20;63.60;;;;;;5083603;28;20348;-78
2022/04/26 06:16:31;;;;;;;4.32;3.10;;;12.20;63.60;;;;;;5091214;28;20024;-77
2022/04/26 06:18:57;;;;;;;4.15;3.13;;;12.20;63.60;;;;;;5094622;28;20027;-77
2022/04/26 06:21:23;;;;;;;5.18;3.17;;;12.20;63.60;;;;;;5084222;28;20056;-76
2022/04/26 06:23:49;;;;;;;4.35;3.03;;;12.20;63.70;;;;;;5092805;28;20037;-77
2022/04/26 06:26:14;;;;;;;4.65;3.50;;;12.30;63.80;;;;;;5090204;28;20032;-77
2022/04/26 06:28:40;;;;;;;4.47;3.38;;;12.30;63.80;;;;;;5097966;28;20066;-77
2022/04/26 06:31:06;;;;;;;4.90;3.13;;;12.30;63.80;;;;;;5063191;28;20135;-77
2022/04/26 06:33:33;;;;;;;4.82;2.83;;;12.30;63.80;;;;;;5090389;28;20035;-77
2022/04/26 06:35:59;;;;;;;4.43;2.92;;;12.30;63.80;;;;;;5082908;28;20171;-76
2022/04/26 06:38:25;;;;;;;5.40;3.10;;;12.30;63.80;;;;;;5099665;28;20035;-76
2022/04/26 06:40:54;;;;;;;5.45;3.40;;;12.30;63.90;;;;;;5099729;28;20047;-77
2022/04/26 06:43:20;;;;;;;4.68;3.15;;;12.30;64.00;;;;;;5088093;28;20387;-76
2022/04/26 06:45:46;;;;;;;5.10;3.33;;;12.30;63.90;;;;;;5086860;28;20456;-77
2022/04/26 06:48:14;;;;;;;4.07;3.30;;;12.40;64.00;;;;;;5083109;28;20491;-78
2022/04/26 06:50:40;;;;;;;4.45;3.15;;;12.40;64.10;;;;;;5103091;28;20020;-77
2022/04/26 06:53:07;;;;;;;5.53;3.63;;;12.40;64.10;;;;;;5085515;28;20035;-77
2022/04/26 06:55:33;;;;;;;4.20;3.15;;;12.40;64.10;;;;;;5101161;28;20066;-77
2022/04/26 06:57:59;;;;;;;5.47;3.63;;;12.40;64.10;;;;;;5092048;28;20442;-76
2022/04/26 07:00:25;;;;;;;4.68;3.00;;;12.50;64.20;;;;;;5097452;28;20040;-77
2022/04/26 07:02:51;;;;;;;4.60;3.60;;;12.50;64.20;;;;;;5101195;28;20020;-77
2022/04/26 07:05:18;;;;;;;4.38;2.90;;;12.50;64.20;;;;;;5085636;28;20439;-76
2022/04/26 07:07:43;;;;;;;4.22;3.08;;;12.50;64.20;;;;;;5103078;28;20058;-76
2022/04/26 07:10:10;;;;;;;4.18;3.08;;;12.60;64.20;;;;;;5090531;28;20048;-77
2022/04/26 07:12:36;;;;;;;5.43;3.00;;;12.60;64.20;;;;;;5082354;28;20450;-78
2022/04/26 07:15:03;;;;;;;4.68;3.05;;;12.60;64.20;;;;;;5076403;28;20032;-77
2022/04/26 07:17:29;;;;;;;5.38;3.00;;;12.60;64.20;;;;;;5099431;28;20716;-77
2022/04/26 07:19:58;;;;;;;4.78;3.22;;;12.60;64.20;;;;;;5064549;28;20028;-78
2022/04/26 07:22:24;;;;;;;4.57;3.10;;;12.60;64.10;;;;;;5076976;28;20048;-78
2022/04/26 07:24:50;;;;;;;4.88;3.40;;;12.70;64.20;;;;;;5094047;28;20130;-78
2022/04/26 07:27:16;;;;;;;5.50;3.45;;;12.70;64.20;;;;;;5085924;28;20118;-78
2022/04/26 07:29:43;;;;;;;4.82;3.05;;;12.70;64.10;;;;;;5083978;28;20106;-76
2022/04/26 07:32:09;;;;;;;6.10;3.55;;;12.70;64.10;;;;;;5099738;28;20030;-76
2022/04/26 07:34:36;;;;;;;5.30;3.28;;;12.70;64.10;;;;;;5049329;28;20487;-77
2022/04/26 07:37:02;;;;;;;4.15;3.17;;;12.80;64.80;;;;;;5082529;28;20027;-77
2022/04/26 07:39:34;;;;;;;5.07;3.53;;;12.80;64.10;;;;;;5099828;28;20468;-77
2022/04/26 07:42:01;;;;;;;5.95;3.63;;;12.80;64.20;;;;;;5101596;28;20506;-77
2022/04/26 07:44:27;;;;;;;4.55;3.05;;;12.80;64.10;;;;;;5101903;28;20084;-77
2022/04/26 07:46:54;;;;;;;5.72;3.40;;;12.90;64.10;;;;;;5096308;28;20032;-77
2022/04/26 07:49:23;;;;;;;4.50;3.03;;;12.90;64.10;;;;;;5098943;28;20024;-77
2022/04/26 07:51:50;;;;;;;4.38;2.88;;;12.90;64.10;;;;;;5098668;28;20530;-77
2022/04/26 07:54:16;;;;;;;4.85;3.40;;;12.90;64.10;;;;;;5098878;28;20564;-78
2022/04/26 07:56:43;;;;;;;4.38;3.13;;;12.90;64.10;;;;;;5098689;28;20525;-76
2022/04/26 07:59:09;;;;;;;5.57;2.85;;;13.00;64.10;;;;;;5089494;28;20020;-77
2022/04/26 08:01:35;;;;;;;5.45;3.33;;;13.00;64.10;;;;;;5101388;28;20028;-77
2022/04/26 08:04:01;;;;;;;5.38;3.80;;;13.00;64.10;;;;;;5103525;28;20080;-78
2022/04/26 08:06:27;;;;;;;3.95;3.15;;;13.00;64.10;;;;;;5076502;28;20016;-77
2022/04/26 08:08:54;;;;;;;4.88;3.28;;;13.00;64.00;;;;;;5058783;28;20048;-77
2022/04/26 08:11:21;;;;;;;5.22;3.35;;;13.00;64.00;;;;;;5091832;28;20021;-77
2022/04/26 08:13:46;;;;;;;4.63;3.25;;;13.00;64.00;;;;;;5097289;28;20529;-77
2022/04/26 08:16:12;;;;;;;4.03;3.17;;;13.10;64.00;;;;;;5091623;28;20107;-77
2022/04/26 08:18:38;;;;;;;4.43;3.10;;;13.00;63.90;;;;;;5096858;28;20028;-77
2022/04/26 08:21:08;;;;;;;5.47;2.88;;;13.10;64.00;;;;;;5090185;28;20020;-78
2022/04/26 08:27:22;;;;;;;4.38;3.13;;;13.10;64.70;;;;;;5085184;28;20059;-78
2022/04/26 08:29:05;;;;;;;5.00;3.35;;;13.10;63.90;;;;;;5096928;28;20032;-77
2022/04/26 08:31:30;;;;;;;4.38;2.95;;;13.10;63.90;;;;;;5098312;28;20491;-77
2022/04/26 08:33:56;;;;;;;3.75;2.97;;;13.10;63.90;;;;;;5074963;28;20039;-78
2022/04/26 08:36:22;;;;;;;5.60;3.42;;;13.10;63.90;;;;;;5092884;28;20024;-77
2022/04/26 08:38:48;;;;;;;4.32;2.88;;;13.20;64.00;;;;;;5080957;28;20028;-77
2022/04/26 08:41:15;;;;;;;4.75;3.13;;;13.20;64.00;;;;;;5099672;28;20024;-77
2022/04/26 08:43:41;;;;;;;4.40;3.00;;;13.20;63.90;;;;;;5072469;28;20100;-77
2022/04/26 08:46:07;;;;;;;3.55;2.67;;;13.20;63.90;;;;;;5058782;28;20435;-77
2022/04/26 08:51:16;;;;;;;4.40;3.08;;;13.30;63.80;;;;;;5075471;28;20039;-77
2022/04/26 08:53:44;;;;;;;4.18;2.85;;;13.30;63.80;;;;;;5097937;28;20020;-77
2022/04/26 08:56:11;;;;;;;4.30;3.13;;;13.40;63.80;;;;;;5101052;28;20036;-76
2022/04/26 08:58:37;;;;;;;4.78;2.90;;;13.40;63.80;;;;;;5101285;28;20111;-78
2022/04/26 09:01:19;;;;;;;3.60;2.50;;;13.40;63.70;;;;;;5093602;28;20115;-77
2022/04/26 09:03:54;;;;;;;3.38;2.53;;;13.50;63.80;;;;;;5088539;28;20033;-77
2022/04/26 09:06:36;;;;;;;3.10;2.47;;;13.60;63.60;;;;;;5097647;28;20491;-77
2022/04/26 09:09:15;;;;;;;3.33;2.53;;;13.60;63.50;;;;;;5093369;28;20106;-77
2022/04/26 09:11:42;;;;;;;3.22;2.33;;;13.70;63.40;;;;;;5088298;28;20055;-77
2022/04/26 09:14:28;;;;;;;3.58;2.75;;;13.70;63.30;;;;;;5087938;28;20031;-77
2022/04/26 09:17:10;;;;;;;3.78;2.47;;;13.80;63.30;;;;;;5068234;28;20036;-76
2022/04/26 09:19:47;;;;;;;4.38;2.40;;;13.90;63.20;;;;;;5099413;28;20016;-77
2022/04/26 09:22:18;;;;;;;3.97;2.55;;;13.90;63.10;;;;;;5083148;28;20048;-77
2022/04/26 09:25:04;;;;;;;3.25;2.28;;;14.00;62.90;;;;;;5107711;28;20118;-77
2022/04/26 09:27:34;;;;;;;2.97;2.13;;;14.10;62.90;;;;;;5094051;28;20051;-77
2022/04/26 09:30:10;;;;;;;2.88;2.30;;;14.20;62.90;;;;;;5065431;28;20081;-78
2022/04/26 09:33:02;;;;;;;3.75;2.45;;;14.30;62.90;;;;;;5078085;28;20131;-79
2022/04/26 09:35:29;;;;;;;3.33;2.22;;;14.30;62.80;;;;;;5077998;28;20028;-79
2022/04/26 09:37:55;;;;;;;3.38;2.25;;;14.40;62.70;;;;;;5064855;28;20027;-77
2022/04/26 09:40:26;;;;;;;3.33;2.35;;;14.50;62.60;;;;;;5084106;28;20375;-78
2022/04/26 09:42:52;;;;;;;3.92;2.22;;;14.60;62.60;;;;;;5099863;28;20034;-79
2022/04/26 09:45:17;;;;;;;3.13;2.40;;;14.70;62.60;;;;;;5099066;28;20032;-78
2022/04/26 09:47:45;;;;;;;3.67;2.25;;;14.80;62.60;;;;;;5089157;28;20442;-78
2022/04/26 09:50:15;;;;;;;3.53;2.47;;;14.90;62.40;;;;;;5088525;28;20020;-79
2022/04/26 09:52:41;;;;;;;3.03;2.33;;;15.00;62.20;;;;;;5078696;28;20120;-78
2022/04/26 09:55:09;;;;;;;3.53;2.17;;;15.00;62.10;;;;;;5099063;28;20023;-77
2022/04/26 09:57:36;;;;;;;2.70;2.00;;;15.10;62.10;;;;;;5097425;28;20361;-79
2022/04/26 10:00:12;;;;;;;3.30;2.30;;;15.20;61.90;;;;;;5098382;28;20066;-78
2022/04/26 10:02:46;;;;;;;3.03;2.20;;;15.30;61.90;;;;;;5070096;28;20114;-78
2022/04/26 10:05:15;;;;;;;2.67;2.10;;;15.40;61.80;;;;;;5078183;28;20072;-79
2022/04/26 10:07:45;;;;;;;3.22;2.08;;;15.50;61.80;;;;;;5097653;28;20016;-79
2022/04/26 10:10:13;;;;;;;2.80;2.15;;;15.50;61.80;;;;;;5088898;28;20419;-79
2022/04/26 10:12:41;;;;;;;3.72;2.10;;;15.60;61.90;;;;;;5097254;28;20039;-78
2022/04/26 10:15:08;;;;;;;2.95;2.20;;;15.70;61.90;;;;;;5075271;28;20029;-78
2022/04/26 10:17:34;;;;;;;3.10;2.30;;;15.80;61.90;;;;;;5102681;28;20044;-78
2022/04/26 10:20:03;;;;;;;2.53;1.90;;;15.90;61.70;;;;;;5087148;28;20403;-78
2022/04/26 10:22:56;;;;;;;2.72;1.90;;;16.00;61.50;;;;;;5101096;28;20078;-75
2022/04/26 10:25:23;;;;;;;2.88;2.17;;;16.10;61.50;;;;;;5091052;28;20095;-75
2022/04/26 10:28:16;;;;;;;3.40;2.10;;;16.20;61.30;;;;;;5082826;28;20051;-75
2022/04/26 10:30:50;;;;;;;2.58;2.00;;;16.30;61.40;;;;;;5102194;28;20109;-75
2022/04/26 10:33:34;;;;;;;3.70;2.35;;;16.40;61.20;;;;;;5101126;28;20157;-75
2022/04/26 10:36:32;;;;;;;2.65;1.85;;;16.40;61.20;;;;;;5104002;28;20038;-78
2022/04/26 10:39:12;;;;;;;3.15;2.22;;;16.60;61.30;;;;;;5095221;28;20036;-76
2022/04/26 10:41:46;;;;;;;3.42;2.15;;;16.60;61.20;;;;;;5100238;28;20821;-76
2022/04/26 10:44:17;;;;;;;2.90;1.90;;;16.70;61.10;;;;;;5074818;28;20043;-76
2022/04/26 10:46:50;;;;;;;2.72;2.10;;;16.80;61.10;;;;;;5084052;28;20054;-76
2022/04/26 10:49:25;;;;;;;2.97;1.90;;;16.90;61.10;;;;;;5087208;28;20062;-78
2022/04/26 10:51:57;;;;;;;2.53;1.77;;;17.00;61.10;;;;;;5088321;28;20035;-75
2022/04/26 10:54:48;;;;;;;2.55;2.03;;;17.00;60.90;;;;;;5076610;28;20024;-76
2022/04/26 10:57:26;;;;;;;2.30;1.83;;;17.10;61.00;;;;;;5100293;28;20031;-76
2022/04/26 11:00:09;;;;;;;2.72;2.00;;;17.20;60.80;;;;;;5098409;28;20105;-76
2022/04/26 11:02:40;;;;;;;3.00;2.00;;;17.30;60.80;;;;;;5080179;28;20032;-78
2022/04/26 11:05:08;;;;;;;2.80;1.90;;;17.40;60.80;;;;;;5086369;28;20327;-77
2022/04/26 11:07:35;;;;;;;2.58;1.90;;;17.40;60.80;;;;;;5083294;28;20478;-76
2022/04/26 11:10:04;;;;;;;2.13;1.90;;;17.50;60.80;;;;;;5099665;28;20032;-76
2022/04/26 11:12:33;;;;;;;2.20;1.90;;;17.60;60.70;;;;;;5064297;28;20115;-77
2022/04/26 11:15:11;;;;;;;2.38;2.03;;;17.60;60.60;;;;;;5093985;28;20485;-76
2022/04/26 11:17:38;;;;;;;2.90;2.13;;;17.70;60.60;;;;;;5097986;28;20043;-76
2022/04/26 11:20:35;;;;;;;3.10;1.85;;;17.70;60.50;;;;;;5094328;28;20364;-76
2022/04/26 11:28:00;;;;;;;2.35;1.70;;;17.70;60.50;;;;;;5090450;28;20052;-76
2022/04/26 11:28:31;;;;;;;1.95;1.65;;;17.90;60.10;;;;;;5082194;28;20059;-76
2022/04/26 11:30:58;;;;;;;2.92;1.90;;;17.90;60.10;;;;;;5068858;28;20036;-75
2022/04/26 11:33:25;;;;;;;2.97;2.15;;;18.00;60.10;;;;;;5096154;28;20036;-76
2022/04/26 11:35:59;;;;;;;2.60;2.10;;;18.00;60.10;;;;;;5101991;28;20020;-77
2022/04/26 11:38:25;;;;;;;3.95;2.20;;;18.00;60.00;;;;;;5091332;28;20021;-75
2022/04/26 11:40:52;;;;;;;3.13;2.10;;;18.10;59.90;;;;;;5098488;28;20031;-77
2022/04/26 11:43:22;;;;;;;2.05;1.73;;;18.10;59.90;;;;;;5082205;28;20028;-77
2022/04/26 11:45:53;;;;;;;2.25;1.88;;;18.20;59.80;;;;;;5090702;28;20062;-75
2022/04/26 11:48:28;;;;;;;2.42;2.00;;;18.20;59.70;;;;;;5094533;28;20531;-76
2022/04/26 11:50:55;;;;;;;2.38;1.98;;;18.20;59.60;;;;;;5087072;28;20028;-78
2022/04/26 11:53:25;;;;;;;2.70;1.95;;;18.30;59.60;;;;;;5081917;28;20016;-77
2022/04/26 11:55:56;;;;;;;3.00;1.88;;;18.40;59.60;;;;;;5082209;28;20036;-77
2022/04/26 11:58:33;;;;;;;2.63;2.00;;;18.40;59.60;;;;;;5101642;28;20437;-77
2022/04/26 12:01:11;;;;;;;3.08;2.10;;;18.40;59.50;;;;;;5101679;28;20034;-78
2022/04/26 12:03:51;;;;;;;3.58;2.15;;;18.50;59.50;;;;;;5087603;28;20042;-76
2022/04/26 12:06:26;;;;;;;1.65;1.55;;;18.60;59.60;;;;;;5090351;28;20482;-76
2022/04/26 12:08:56;;;;;;;3.83;2.40;;;18.60;59.50;;;;;;5096154;28;20038;-78
2022/04/26 12:11:24;;;;;;;2.55;1.88;;;18.70;59.70;;;;;;5101350;28;20035;-76
2022/04/26 12:14:06;;;;;;;3.00;1.98;;;18.70;60.30;;;;;;5099905;28;20024;-77
2022/04/26 12:16:56;;;;;;;2.83;2.15;;;18.80;59.60;;;;;;5094732;28;20028;-78
2022/04/26 12:19:35;;;;;;;3.05;2.30;;;18.80;59.40;;;;;;5100211;28;20024;-75
2022/04/26 12:22:02;;;;;;;4.13;2.00;;;18.90;59.50;;;;;;5066431;28;20052;-76
2022/04/26 12:24:30;;;;;;;3.40;2.20;;;18.90;59.50;;;;;;5098819;28;20103;-77
2022/04/26 12:26:59;;;;;;;2.67;1.88;;;19.00;59.60;;;;;;5094586;28;20028;-77
2022/04/26 12:29:37;;;;;;;3.25;2.15;;;19.00;59.50;;;;;;5077291;28;20028;-76
2022/04/26 12:32:08;;;;;;;2.88;2.00;;;19.00;59.60;;;;;;5074731;28;20036;-76
2022/04/26 12:34:34;;;;;;;2.83;1.95;;;19.10;59.40;;;;;;5081928;28;20388;-77
2022/04/26 12:37:16;;;;;;;2.63;1.90;;;19.10;59.30;;;;;;5080659;28;20029;-79
2022/04/26 12:39:48;;;;;;;2.88;2.28;;;19.20;59.30;;;;;;5081685;28;20154;-77
2022/04/26 12:42:14;;;;;;;2.88;1.95;;;19.20;59.10;;;;;;5078418;28;20023;-79
2022/04/26 12:44:54;;;;;;;2.80;2.08;;;19.30;58.90;;;;;;5081025;28;20460;-77
2022/04/26 12:52:53;;;;;;;2.67;1.98;;;19.40;58.50;;;;;;5082294;28;20480;-77
2022/04/26 12:55:30;;;;;;;2.60;1.75;;;19.50;58.50;;;;;;5075519;28;20067;-77
2022/04/26 12:58:01;;;;;;;2.50;1.80;;;19.50;58.60;;;;;;5102128;28;20031;-77
2022/04/26 13:00:28;;;;;;;3.15;2.00;;;19.50;58.50;;;;;;5084048;28;20111;-76
2022/04/26 13:02:56;;;;;;;3.33;2.13;;;19.60;58.60;;;;;;5100933;28;20027;-77
2022/04/26 13:05:22;;;;;;;3.03;2.13;;;19.60;58.60;;;;;;5057534;28;20489;-77
2022/04/26 13:07:48;;;;;;;3.17;2.28;;;19.60;58.60;;;;;;5089739;27;20020;-76
2022/04/26 13:10:15;;;;;;;2.85;2.05;;;19.70;58.70;;;;;;5065764;28;20090;-79
2022/04/26 13:12:41;;;;;;;2.25;1.80;;;19.70;58.70;;;;;;5091070;28;20031;-76
2022/04/26 13:15:10;;;;;;;2.55;1.95;;;19.80;58.40;;;;;;5097466;28;20048;-77
2022/04/26 13:17:37;;;;;;;2.97;1.80;;;19.80;58.30;;;;;;5080448;28;20028;-77
2022/04/26 13:20:08;;;;;;;2.47;1.90;;;19.90;58.30;;;;;;5096139;28;20039;-77
2022/04/26 13:22:35;;;;;;;3.67;2.25;;;19.90;58.10;;;;;;5047766;28;20048;-78
2022/04/26 13:25:03;;;;;;;2.45;1.90;;;20.00;58.10;;;;;;5095514;28;20043;-77
2022/04/26 13:27:30;;;;;;;2.45;1.70;;;20.00;58.20;;;;;;5097303;28;20024;-78
2022/04/26 13:29:56;;;;;;;2.47;1.67;;;20.00;58.20;;;;;;5066534;28;20046;-76
2022/04/26 13:32:21;;;;;;;2.63;2.20;;;20.00;58.30;;;;;;5059163;28;20024;-77
2022/04/26 13:34:48;;;;;;;2.28;1.67;;;20.10;58.30;;;;;;5098106;28;20055;-77
2022/04/26 13:37:14;;;;;;;2.88;1.63;;;20.10;58.20;;;;;;5095666;28;20028;-76
2022/04/26 13:39:41;;;;;;;2.97;1.90;;;20.10;58.20;;;;;;5071845;28;20024;-78
2022/04/26 13:42:07;;;;;;;2.17;1.60;;;20.10;58.70;;;;;;5079053;28;20066;-77
2022/04/26 13:44:33;;;;;;;2.08;1.70;;;20.20;58.00;;;;;;5088051;28;20056;-76
2022/04/26 13:47:02;;;;;;;2.50;2.00;;;20.20;57.90;;;;;;5094816;28;20032;-76
2022/04/26 13:49:28;;;;;;;2.08;1.85;;;20.20;57.90;;;;;;5098342;28;20372;-76
2022/04/26 13:51:53;;;;;;;2.72;1.80;;;20.20;57.80;;;;;;5077112;28;20127;-77
2022/04/26 13:54:19;;;;;;;3.10;1.65;;;20.20;57.80;;;;;;5096070;28;20039;-77
2022/04/26 13:56:49;;;;;;;1.63;1.48;;;20.20;57.70;;;;;;5100480;28;20067;-75
2022/04/26 13:59:15;;;;;;;2.20;1.70;;;20.20;57.70;;;;;;5085096;28;20039;-77
2022/04/26 14:01:41;;;;;;;3.78;1.73;;;20.30;57.70;;;;;;5101237;28;20021;-77
2022/04/26 14:04:07;;;;;;;2.72;1.85;;;20.30;57.70;;;;;;5102024;28;20039;-77
2022/04/26 14:06:33;;;;;;;3.22;2.00;;;20.30;57.80;;;;;;5101188;28;20019;-77
2022/04/26 14:08:58;;;;;;;1.73;1.60;;;20.30;57.80;;;;;;5111219;27;20031;-76
2022/04/26 14:11:24;;;;;;;1.60;1.50;;;20.30;57.70;;;;;;5085820;28;20024;-76
2022/04/26 14:22:03;;;;;;;2.22;1.70;;;20.30;56.80;;;;;;5095393;28;20048;-75
2022/04/26 14:24:29;;;;;;;2.42;1.60;;;20.30;57.20;;;;;;5080489;28;20538;-76
2022/04/26 14:26:54;;;;;;;2.67;1.67;;;20.30;56.40;;;;;;5104128;28;20055;-77
2022/04/26 14:29:20;;;;;;;2.42;1.40;;;20.30;56.30;;;;;;5070008;28;20027;-77
2022/04/26 14:31:48;;;;;;;1.92;1.52;;;20.30;56.20;;;;;;5078541;28;20028;-77
2022/04/26 14:34:14;;;;;;;2.65;1.70;;;20.30;56.30;;;;;;5082404;28;20089;-75
2022/04/26 14:36:40;;;;;;;2.50;1.63;;;20.30;56.20;;;;;;5075670;28;20059;-78
2022/04/26 14:39:06;;;;;;;2.55;1.88;;;20.30;56.10;;;;;;5097049;28;20098;-77
2022/04/26 14:41:32;;;;;;;2.72;1.88;;;20.30;56.00;;;;;;5087316;28;20136;-80
2022/04/26 14:43:57;;;;;;;2.13;1.63;;;20.30;55.80;;;;;;5101150;28;20043;-79
2022/04/26 14:46:23;;;;;;;2.10;1.38;;;20.30;55.70;;;;;;5084475;28;20257;-78
2022/04/26 14:48:49;;;;;;;2.40;1.60;;;20.30;55.70;;;;;;5091572;28;20131;-77
2022/04/26 14:51:15;;;;;;;2.83;2.10;;;20.30;55.70;;;;;;5100536;28;20107;-78
2022/04/26 14:53:40;;;;;;;1.77;1.38;;;20.40;55.60;;;;;;5098219;28;20114;-78
2022/04/26 14:56:09;;;;;;;2.50;1.80;;;20.30;55.40;;;;;;5094903;28;20063;-77
2022/04/26 14:58:35;;;;;;;2.47;1.73;;;20.30;55.50;;;;;;5091692;28;20028;-77
2022/04/26 15:01:01;;;;;;;2.75;2.08;;;20.30;55.40;;;;;;5101378;28;20024;-79
2022/04/26 15:03:27;;;;;;;3.08;1.80;;;20.40;55.50;;;;;;5084579;28;20067;-76
2022/04/26 15:05:54;;;;;;;1.88;1.70;;;20.40;55.50;;;;;;5112139;28;20109;-78
2022/04/26 15:11:04;;;;;;;2.13;1.65;;;20.40;55.30;;;;;;5094170;28;20032;-79
2022/04/26 15:18:59;;;;;;;2.47;1.73;;;20.40;55.60;;;;;;5078899;28;20036;-77
2022/04/26 15:21:25;;;;;;;2.35;1.50;;;20.40;55.70;;;;;;5080765;28;20047;-78
2022/04/26 15:23:53;;;;;;;2.13;1.67;;;20.40;55.80;;;;;;5077626;28;20619;-77
2022/04/26 15:26:19;;;;;;;2.80;1.70;;;20.40;55.70;;;;;;5074374;28;20063;-78
2022/04/26 15:28:45;;;;;;;2.00;1.63;;;20.40;55.70;;;;;;5081103;28;20048;-78
2022/04/26 15:31:10;;;;;;;3.13;1.80;;;20.40;55.60;;;;;;5097431;28;20035;-79
2022/04/26 15:33:36;;;;;;;2.78;1.80;;;20.40;55.60;;;;;;5087348;28;20036;-80
2022/04/26 15:36:02;;;;;;;3.15;1.90;;;20.40;55.60;;;;;;5082640;28;20063;-79
2022/04/26 15:38:28;;;;;;;2.05;1.73;;;20.40;55.70;;;;;;5099416;28;20120;-78
2022/04/26 15:40:55;;;;;;;1.90;1.70;;;20.40;55.90;;;;;;5100500;28;20443;-79
2022/04/26 15:43:21;;;;;;;2.28;1.88;;;20.40;55.70;;;;;;5086034;28;20059;-79
2022/04/26 15:45:46;;;;;;;2.38;1.88;;;20.40;55.70;;;;;;5078194;28;20056;-76
2022/04/26 15:48:12;;;;;;;3.38;2.10;;;20.40;55.70;;;;;;5058369;28;20551;-78
2022/04/26 15:50:41;;;;;;;2.92;1.88;;;20.40;55.70;;;;;;5101775;28;20035;-77
2022/04/26 15:53:07;;;;;;;2.38;1.80;;;20.40;55.90;;;;;;5064431;28;20119;-77
2022/04/26 15:55:33;;;;;;;2.60;1.80;;;20.40;56.10;;;;;;5069375;28;20089;-78
2022/04/26 15:58:00;;;;;;;1.90;1.55;;;20.30;56.20;;;;;;5095322;28;20028;-78
2022/04/26 16:00:26;;;;;;;2.05;1.63;;;20.40;56.10;;;;;;5071373;28;20058;-76
2022/04/26 16:02:53;;;;;;;2.15;1.67;;;20.30;56.10;;;;;;5085744;28;20044;-77
2022/04/26 16:05:19;;;;;;;2.38;1.73;;;20.30;55.80;;;;;;5071092;28;20040;-76
2022/04/26 16:07:44;;;;;;;2.83;1.88;;;20.30;56.00;;;;;;5088503;28;20031;-79
2022/04/26 16:21:08;;;;;;;3.25;2.25;;;20.20;56.10;;;;;;5087254;28;20030;-79
2022/04/26 16:23:34;;;;;;;2.25;1.73;;;20.20;56.20;;;;;;5071334;28;20260;-79
2022/04/26 16:26:02;;;;;;;2.80;1.92;;;20.20;56.60;;;;;;5070115;28;20695;-78
2022/04/26 16:28:35;;;;;;;3.00;1.90;;;20.20;56.50;;;;;;5087737;28;20491;-79
2022/04/26 16:31:02;;;;;;;2.60;1.77;;;20.20;56.70;;;;;;5085444;28;20028;-78
2022/04/26 16:33:28;;;;;;;2.88;2.08;;;20.20;56.80;;;;;;5087312;28;20028;-78
2022/04/26 16:35:54;;;;;;;2.28;1.83;;;20.20;56.80;;;;;;5069592;28;20028;-77
2022/04/26 16:38:20;;;;;;;3.33;1.80;;;20.20;57.10;;;;;;5050513;28;20380;-77
2022/04/26 16:40:47;;;;;;;2.60;1.80;;;20.10;57.20;;;;;;5061705;28;20036;-78
2022/04/26 16:43:17;;;;;;;2.20;1.73;;;20.20;57.30;;;;;;5065563;28;20024;-78
2022/04/26 16:45:48;;;;;;;2.72;1.80;;;20.20;57.30;;;;;;5087038;28;20042;-77
2022/04/26 16:48:15;;;;;;;2.38;1.83;;;20.20;57.50;;;;;;5082246;28;20028;-78
2022/04/26 16:50:41;;;;;;;4.18;2.05;;;20.20;57.60;;;;;;5070561;28;20115;-77
2022/04/26 16:53:07;;;;;;;2.78;1.70;;;20.10;57.40;;;;;;5091750;28;20048;-78
2022/04/26 16:55:33;;;;;;;2.95;1.90;;;20.10;57.30;;;;;;5071194;28;20032;-79
2022/04/26 16:58:01;;;;;;;3.75;2.10;;;20.10;57.20;;;;;;5089868;28;20024;-76
2022/04/26 17:00:28;;;;;;;1.95;1.70;;;20.10;57.20;;;;;;5071202;28;20054;-79
2022/04/26 17:02:54;;;;;;;2.53;1.90;;;20.10;57.20;;;;;;5084537;28;20111;-79
2022/04/26 17:05:22;;;;;;;2.45;1.60;;;20.10;57.20;;;;;;5090165;28;20064;-79
2022/04/26 17:07:51;;;;;;;2.60;1.80;;;20.10;57.00;;;;;;5083629;28;20025;-79
2022/04/26 17:10:18;;;;;;;2.45;1.88;;;20.10;57.00;;;;;;5084342;28;20115;-78
2022/04/26 17:12:48;;;;;;;2.92;1.90;;;20.10;56.80;;;;;;5072273;28;20039;-78
2022/04/26 17:15:18;;;;;;;2.72;1.70;;;20.00;56.70;;;;;;5087565;28;20035;-76